Time;durP1;ratioP1;P1;durP2;ratioP2;P2;SDS_P1;SDS_P2;PMS_P1;PMS_P2;Temp;Humidity;BMP_temperature;BMP_pressure;BME280_temperature;BME280_humidity;BME280_pressure;Samples;Min_cycle;Max_cycle;Signal;HPM_P1;HPM_P2
2022/04/18 00:00:33;;;;;;;7.85;6.30;;;;;;;9.88;51.16;99497.66;5019155;28;20405;-83
2022/04/18 00:03:03;;;;;;;7.80;6.13;;;;;;;9.85;51.56;99499.97;5005336;28;20037;-83
2022/04/18 00:05:29;;;;;;;6.85;5.70;;;;;;;9.87;51.25;99501.38;5019028;28;20044;-82
2022/04/18 00:07:54;;;;;;;9.05;6.90;;;;;;;9.86;51.14;99498.91;5026910;28;20029;-83
2022/04/18 00:10:19;;;;;;;7.97;6.50;;;;;;;9.80;51.21;99500.66;5027529;28;20035;-83
2022/04/18 00:12:45;;;;;;;8.55;6.53;;;;;;;9.88;51.43;99497.66;5005638;28;20030;-83
2022/04/18 00:15:10;;;;;;;10.30;7.40;;;;;;;9.66;51.83;99480.53;5024624;28;20091;-83
2022/04/18 00:17:35;;;;;;;12.15;6.75;;;;;;;9.66;51.87;99480.53;5006206;28;20040;-83
2022/04/18 00:20:01;;;;;;;10.57;6.57;;;;;;;9.78;51.87;99490.19;4994288;28;20061;-83
2022/04/18 00:22:26;;;;;;;10.25;6.03;;;;;;;9.73;52.01;99484.75;5008257;28;20025;-83
2022/04/18 00:24:52;;;;;;;8.25;6.45;;;;;;;9.70;51.71;99469.19;4992605;28;20060;-83
2022/04/18 00:27:17;;;;;;;9.05;6.68;;;;;;;9.67;51.76;99474.19;5021434;28;20029;-83
2022/04/18 00:29:42;;;;;;;8.25;6.80;;;;;;;9.58;52.14;99471.03;4990211;28;20029;-83
2022/04/18 00:32:08;;;;;;;7.88;5.70;;;;;;;9.68;52.06;99481.94;4993064;28;20052;-83
2022/04/18 00:34:33;;;;;;;8.50;6.22;;;;;;;9.59;51.49;99480.63;5023444;28;20069;-83
2022/04/18 00:36:59;;;;;;;8.27;5.82;;;;;;;9.59;51.84;99479.81;5012670;28;21689;-83
2022/04/18 00:39:24;;;;;;;9.18;5.57;;;;;;;9.54;52.54;99474.38;5011119;28;20033;-83
2022/04/18 00:41:49;;;;;;;7.57;6.03;;;;;;;9.44;52.00;99476.75;5026357;28;20107;-83
2022/04/18 00:44:15;;;;;;;8.63;5.88;;;;;;;9.43;52.33;99472.47;5028086;28;20056;-83
2022/04/18 00:46:40;;;;;;;10.98;6.13;;;;;;;9.36;52.56;99466.41;5016266;28;20091;-83
2022/04/18 00:49:05;;;;;;;9.52;6.47;;;;;;;9.36;52.32;99461.09;4998249;28;20033;-83
2022/04/18 00:51:31;;;;;;;9.88;6.53;;;;;;;9.36;52.41;99455.75;4995300;28;20044;-83
2022/04/18 00:53:57;;;;;;;8.52;6.00;;;;;;;9.37;51.99;99463.50;5010456;28;20124;-83
2022/04/18 00:56:24;;;;;;;7.95;6.15;;;;;;;9.31;52.29;99471.59;5023151;28;20125;-83
2022/04/18 00:58:50;;;;;;;9.23;6.00;;;;;;;9.30;52.71;99467.31;5026793;28;20025;-83
2022/04/18 01:01:17;;;;;;;8.90;6.15;;;;;;;9.22;52.47;99459.66;5004858;28;20051;-83
2022/04/18 01:03:43;;;;;;;9.32;6.65;;;;;;;9.21;52.85;99444.69;5007911;28;20039;-82
2022/04/18 01:06:09;;;;;;;10.75;6.50;;;;;;;9.20;52.42;99443.88;5029424;28;20025;-82
2022/04/18 01:08:34;;;;;;;14.55;7.32;;;;;;;9.21;52.56;99458.00;5006671;28;20374;-82
2022/04/18 01:11:01;;;;;;;9.82;6.95;;;;;;;9.09;53.20;99451.81;5009438;28;20029;-82
2022/04/18 01:13:29;;;;;;;16.73;6.85;;;;;;;9.14;52.39;99436.78;5028575;28;20037;-82
2022/04/18 01:15:57;;;;;;;8.77;6.22;;;;;;;9.13;52.97;99434.34;5011721;28;20036;-82
2022/04/18 01:18:23;;;;;;;13.18;6.53;;;;;;;9.09;52.66;99433.19;5025055;28;20039;-82
2022/04/18 01:20:49;;;;;;;8.45;6.28;;;;;;;9.14;52.12;99434.13;5025222;28;20505;-82
2022/04/18 01:23:16;;;;;;;11.63;7.05;;;;;;;9.12;52.56;99427.38;5026625;28;20041;-82
2022/04/18 01:28:58;;;;;;;12.65;7.53;;;;;;;8.98;52.34;99426.72;5011950;28;20032;-82
2022/04/18 01:31:23;;;;;;;11.52;7.10;;;;;;;8.99;53.05;99423.88;5022904;28;20033;-82
2022/04/18 01:33:48;;;;;;;10.38;7.43;;;;;;;8.93;52.85;99426.63;5027994;28;20037;-82
2022/04/18 01:36:14;;;;;;;12.75;7.57;;;;;;;8.92;53.12;99417.81;4995635;28;20043;-83
2022/04/18 01:38:39;;;;;;;12.05;7.00;;;;;;;8.95;53.02;99419.22;5006648;28;20044;-83
2022/04/18 01:41:04;;;;;;;12.45;7.07;;;;;;;8.88;52.74;99421.13;4996627;28;20040;-82
2022/04/18 01:43:30;;;;;;;12.70;7.30;;;;;;;8.87;52.55;99414.16;5026050;28;20408;-82
2022/04/18 01:45:55;;;;;;;8.45;6.38;;;;;;;8.95;52.66;99420.00;5005225;28;20036;-82
2022/04/18 01:48:20;;;;;;;11.25;6.43;;;;;;;8.79;53.00;99423.28;5003771;28;20437;-82
2022/04/18 01:50:45;;;;;;;10.25;7.03;;;;;;;8.83;53.16;99421.81;5006861;28;20037;-82
2022/04/18 01:53:12;;;;;;;10.90;8.02;;;;;;;8.78;52.83;99413.66;5016293;28;20266;-82
2022/04/18 01:55:37;;;;;;;11.80;7.63;;;;;;;8.80;52.97;99419.56;4995373;28;20040;-82
2022/04/18 01:58:05;;;;;;;9.73;7.68;;;;;;;8.52;53.25;99383.91;5025152;28;20033;-82
2022/04/18 02:00:31;;;;;;;10.13;7.82;;;;;;;8.76;53.10;99421.06;5007650;28;20128;-82
2022/04/18 02:02:56;;;;;;;11.77;7.80;;;;;;;8.61;53.25;99398.50;5021334;28;20041;-82
2022/04/18 02:05:22;;;;;;;15.20;8.32;;;;;;;8.64;52.95;99414.88;4993417;28;20415;-82
2022/04/18 02:07:47;;;;;;;10.65;7.55;;;;;;;8.52;52.70;99397.22;5011184;28;20346;-82
2022/04/18 02:10:13;;;;;;;14.77;7.85;;;;;;;8.50;53.41;99375.31;5029703;28;20039;-82
2022/04/18 02:12:38;;;;;;;14.70;8.52;;;;;;;8.53;52.79;99390.84;5034280;28;20057;-82
2022/04/18 02:15:04;;;;;;;11.45;8.43;;;;;;;8.52;53.44;99390.03;5020459;28;20030;-82
2022/04/18 02:17:29;;;;;;;11.57;7.45;;;;;;;8.41;53.54;99377.44;5016509;28;20500;-83
2022/04/18 02:19:55;;;;;;;10.00;6.88;;;;;;;8.53;52.85;99390.84;4994886;28;20060;-82
2022/04/18 02:22:23;;;;;;;14.95;9.27;;;;;;;8.53;53.28;99394.31;5003929;28;20059;-83
2022/04/18 02:24:49;;;;;;;11.90;8.80;;;;;;;8.46;53.49;99390.91;5039136;28;20172;-82
2022/04/18 02:27:15;;;;;;;10.88;7.72;;;;;;;8.49;53.40;99387.00;5006514;28;20030;-82
2022/04/18 02:29:40;;;;;;;11.60;8.13;;;;;;;8.42;53.30;99379.09;5023598;28;20496;-82
2022/04/18 02:34:50;;;;;;;12.63;8.30;;;;;;;8.34;53.71;99378.56;5027510;28;20033;-83
2022/04/18 02:37:15;;;;;;;11.30;7.85;;;;;;;8.32;53.74;99378.81;5024243;28;20025;-82
2022/04/18 02:39:41;;;;;;;11.02;8.05;;;;;;;8.36;53.48;99382.66;5015039;28;20420;-83
2022/04/18 02:42:06;;;;;;;10.88;7.63;;;;;;;8.38;54.16;99382.41;4993553;28;20034;-83
2022/04/18 02:44:31;;;;;;;14.90;8.32;;;;;;;8.32;53.35;99370.00;5008156;28;20099;-82
2022/04/18 02:46:57;;;;;;;12.48;8.38;;;;;;;8.32;53.54;99366.28;5016922;28;20033;-83
2022/04/18 02:49:22;;;;;;;11.13;7.55;;;;;;;8.34;53.50;99362.63;5008323;28;20080;-83
2022/04/18 02:51:47;;;;;;;12.55;7.18;;;;;;;8.33;53.93;99364.47;4993120;28;20045;-83
2022/04/18 02:54:13;;;;;;;11.32;7.60;;;;;;;8.32;53.42;99359.38;5024767;28;21356;-82
2022/04/18 02:56:38;;;;;;;10.85;7.35;;;;;;;8.28;54.05;99361.63;5002593;28;20029;-82
2022/04/18 02:59:03;;;;;;;11.98;8.23;;;;;;;8.19;53.92;99353.09;5014931;28;20034;-82
2022/04/18 03:01:28;;;;;;;9.05;6.88;;;;;;;8.21;53.49;99348.38;5006002;28;20037;-82
2022/04/18 03:03:54;;;;;;;9.60;6.57;;;;;;;8.16;54.37;99353.56;5009995;28;20026;-82
2022/04/18 03:06:19;;;;;;;11.98;7.57;;;;;;;8.17;54.32;99349.03;5011332;28;20053;-82
2022/04/18 03:08:44;;;;;;;15.68;8.15;;;;;;;8.18;53.68;99351.50;5008063;28;20036;-83
2022/04/18 03:11:10;;;;;;;10.88;7.40;;;;;;;8.09;53.57;99328.06;5027699;28;20064;-83
2022/04/18 03:13:37;;;;;;;9.52;6.90;;;;;;;8.10;53.70;99329.72;5025978;28;20064;-83
2022/04/18 03:16:04;;;;;;;11.70;7.30;;;;;;;8.01;53.89;99331.84;5008421;28;20044;-83
2022/04/18 03:18:30;;;;;;;10.65;6.57;;;;;;;8.07;54.32;99333.63;5033386;28;20501;-86
2022/04/18 03:20:55;;;;;;;8.32;6.65;;;;;;;8.09;53.92;99320.09;5017840;28;20025;-86
2022/04/18 03:23:21;;;;;;;9.13;6.78;;;;;;;8.11;53.52;99328.66;5016953;28;20404;-86
2022/04/18 03:25:46;;;;;;;9.50;6.53;;;;;;;8.03;54.10;99328.97;5026469;28;20044;-86
2022/04/18 03:28:12;;;;;;;11.88;7.22;;;;;;;8.04;53.91;99311.97;5024065;28;20029;-82
2022/04/18 03:30:37;;;;;;;10.52;6.95;;;;;;;8.04;54.29;99330.56;5009549;28;20044;-82
2022/04/18 03:33:03;;;;;;;9.55;6.22;;;;;;;8.08;53.99;99334.44;4993450;28;20433;-82
2022/04/18 03:35:30;;;;;;;10.82;7.15;;;;;;;8.05;54.35;99330.38;5026690;28;20477;-82
2022/04/18 03:40:39;;;;;;;11.27;7.38;;;;;;;7.95;54.36;99324.72;5029679;28;20049;-82
2022/04/18 03:43:05;;;;;;;7.78;6.65;;;;;;;7.92;54.66;99330.50;5013042;28;20029;-83
2022/04/18 03:45:30;;;;;;;10.55;6.38;;;;;;;7.96;54.18;99329.03;5025620;28;20060;-83
2022/04/18 03:47:55;;;;;;;12.32;6.65;;;;;;;7.96;54.34;99326.38;5025984;28;20029;-83
2022/04/18 03:50:21;;;;;;;8.73;6.60;;;;;;;7.88;54.11;99336.47;5012051;28;20401;-83
2022/04/18 03:52:46;;;;;;;9.48;6.60;;;;;;;7.91;54.00;99343.97;5021707;28;20574;-83
2022/04/18 03:55:11;;;;;;;9.80;6.78;;;;;;;7.91;54.32;99333.34;5009600;28;20037;-86
2022/04/18 03:57:37;;;;;;;10.07;6.70;;;;;;;7.95;54.05;99342.53;5011954;28;20396;-86
2022/04/18 04:00:04;;;;;;;9.60;7.43;;;;;;;7.84;53.86;99333.41;5000998;28;20060;-86
2022/04/18 04:02:30;;;;;;;8.68;6.65;;;;;;;7.83;53.91;99333.66;5023581;28;20064;-86
2022/04/18 04:04:55;;;;;;;11.00;6.72;;;;;;;7.85;54.06;99337.72;5007226;28;20056;-86
2022/04/18 04:07:21;;;;;;;11.93;6.38;;;;;;;7.81;53.91;99339.19;5006960;28;20095;-86
2022/04/18 04:09:46;;;;;;;12.10;6.65;;;;;;;7.80;54.33;99326.91;5028063;28;20026;-86
2022/04/18 04:12:11;;;;;;;8.80;6.95;;;;;;;7.76;54.28;99316.94;5004699;28;20065;-86
2022/04/18 04:14:37;;;;;;;13.23;7.22;;;;;;;7.74;54.82;99335.78;4990693;28;20030;-86
2022/04/18 04:17:02;;;;;;;10.98;7.57;;;;;;;7.79;54.45;99335.13;5024423;28;20037;-86
2022/04/18 04:19:28;;;;;;;9.85;7.00;;;;;;;7.75;54.37;99340.06;5010039;28;20053;-86
2022/04/18 04:21:53;;;;;;;10.68;7.75;;;;;;;7.75;54.44;99339.25;5007120;28;20055;-86
2022/04/18 04:24:20;;;;;;;13.80;8.55;;;;;;;7.75;54.74;99336.59;5008167;28;20030;-86
2022/04/18 04:26:45;;;;;;;16.17;8.15;;;;;;;7.54;54.80;99316.53;5011564;28;20091;-86
2022/04/18 04:29:11;;;;;;;11.38;8.07;;;;;;;7.60;54.90;99328.16;4992473;28;20025;-86
2022/04/18 04:31:36;;;;;;;13.80;9.10;;;;;;;7.67;54.28;99331.53;5023759;28;20756;-86
2022/04/18 04:34:02;;;;;;;13.05;8.02;;;;;;;7.69;54.94;99332.94;5012380;28;20088;-86
2022/04/18 04:36:27;;;;;;;12.85;8.65;;;;;;;7.60;54.70;99320.97;5023142;28;20095;-86
2022/04/18 04:38:52;;;;;;;13.75;10.32;;;;;;;7.63;54.70;99327.69;4987369;28;20041;-86
2022/04/18 04:41:18;;;;;;;20.90;10.45;;;;;;;7.70;54.68;99334.59;5027439;28;20045;-86
2022/04/18 04:43:43;;;;;;;15.98;9.93;;;;;;;7.66;54.01;99300.69;5017132;28;20034;-86
2022/04/18 04:46:09;;;;;;;15.38;10.30;;;;;;;7.81;53.90;99322.41;5008635;28;20037;-86
2022/04/18 04:48:34;;;;;;;13.60;9.05;;;;;;;7.85;54.43;99328.91;5012246;28;20068;-86
2022/04/18 04:50:59;;;;;;;14.13;8.70;;;;;;;7.86;54.26;99322.59;4991670;28;20092;-86
2022/04/18 04:53:25;;;;;;;16.58;9.57;;;;;;;7.83;54.62;99323.84;5008321;28;20036;-86
2022/04/18 04:55:50;;;;;;;13.70;10.00;;;;;;;7.75;54.90;99331.28;4988106;28;20052;-87
2022/04/18 04:58:16;;;;;;;14.55;9.90;;;;;;;7.78;54.88;99325.50;4993673;28;20038;-86
2022/04/18 05:00:42;;;;;;;14.25;9.18;;;;;;;7.88;54.65;99320.53;5018615;28;20026;-86
2022/04/18 05:03:08;;;;;;;17.73;10.25;;;;;;;7.82;54.50;99324.06;5007362;28;20112;-86
2022/04/18 05:05:34;;;;;;;13.32;9.48;;;;;;;7.88;54.69;99312.56;5001942;28;20088;-86
2022/04/18 05:07:59;;;;;;;15.27;9.25;;;;;;;7.91;54.92;99320.06;5011640;28;20359;-86
2022/04/18 05:10:25;;;;;;;14.15;10.50;;;;;;;8.02;54.19;99319.34;5015233;28;20025;-86
2022/04/18 05:12:51;;;;;;;14.55;9.82;;;;;;;8.02;54.80;99324.66;5012540;28;20061;-86
2022/04/18 05:15:17;;;;;;;18.92;10.27;;;;;;;8.06;54.57;99312.56;4989287;28;20507;-86
2022/04/18 05:17:42;;;;;;;13.88;9.27;;;;;;;8.15;54.33;99324.53;5012809;28;20034;-86
2022/04/18 05:20:09;;;;;;;15.02;10.00;;;;;;;8.22;54.58;99333.25;5006087;28;20052;-87
2022/04/18 05:22:34;;;;;;;17.35;10.73;;;;;;;8.20;54.70;99325.50;5014906;28;20037;-86
2022/04/18 05:25:00;;;;;;;14.07;10.40;;;;;;;8.28;54.74;99329.72;5022865;28;20028;-86
2022/04/18 05:27:26;;;;;;;15.02;10.85;;;;;;;8.30;54.24;99325.00;5011154;28;20034;-86
2022/04/18 05:29:51;;;;;;;15.50;9.85;;;;;;;8.40;54.37;99313.84;5011764;28;20026;-86
2022/04/18 05:32:17;;;;;;;16.75;10.80;;;;;;;8.54;54.95;99331.28;5024227;28;20378;-86
2022/04/18 05:34:42;;;;;;;15.18;10.43;;;;;;;8.62;54.04;99326.47;5010046;28;20500;-86
2022/04/18 05:37:08;;;;;;;21.55;11.75;;;;;;;8.72;54.46;99332.06;5026250;28;20083;-86
2022/04/18 05:39:34;;;;;;;15.85;10.85;;;;;;;8.55;54.53;99331.06;5023537;28;20033;-86
2022/04/18 05:42:00;;;;;;;13.55;10.27;;;;;;;8.55;55.04;99322.25;5023075;28;20473;-86
2022/04/18 05:44:25;;;;;;;18.05;11.57;;;;;;;8.49;55.06;99318.66;5026729;28;20029;-86
2022/04/18 05:46:51;;;;;;;17.50;11.00;;;;;;;8.52;55.01;99314.75;5007892;28;20037;-86
2022/04/18 05:49:17;;;;;;;18.38;11.38;;;;;;;8.61;54.73;99319.50;5025721;28;20025;-86
2022/04/18 05:51:42;;;;;;;17.27;11.43;;;;;;;8.66;54.75;99317.00;5024270;28;20025;-86
2022/04/18 05:54:08;;;;;;;17.50;11.43;;;;;;;8.64;55.44;99323.56;4990524;28;20480;-86
2022/04/18 05:56:33;;;;;;;20.70;11.52;;;;;;;8.65;54.86;99322.56;4994322;28;20502;-86
2022/04/18 05:58:59;;;;;;;18.15;12.80;;;;;;;8.83;54.87;99323.31;5010862;28;20041;-86
2022/04/18 06:01:24;;;;;;;18.45;12.80;;;;;;;8.73;55.32;99322.25;5031732;28;20025;-86
2022/04/18 06:03:50;;;;;;;21.27;13.30;;;;;;;8.75;54.79;99322.81;5008569;28;20397;-86
2022/04/18 06:06:16;;;;;;;21.33;12.68;;;;;;;8.81;54.92;99329.91;5020033;28;20039;-86
2022/04/18 06:08:41;;;;;;;17.45;12.35;;;;;;;8.74;55.30;99321.19;5013621;28;20075;-86
2022/04/18 06:11:07;;;;;;;18.67;13.40;;;;;;;8.87;54.47;99331.66;5023315;28;20050;-87
2022/04/18 06:13:32;;;;;;;21.58;12.73;;;;;;;8.73;55.18;99328.38;5026817;28;20025;-86
2022/04/18 06:15:58;;;;;;;20.63;12.90;;;;;;;8.79;55.38;99322.16;5013596;28;20044;-86
2022/04/18 06:18:23;;;;;;;21.08;13.32;;;;;;;8.78;55.44;99331.16;5011519;28;20465;-86
2022/04/18 06:20:49;;;;;;;18.90;12.82;;;;;;;8.72;55.83;99324.06;5040071;28;20114;-86
2022/04/18 06:23:16;;;;;;;18.45;13.05;;;;;;;8.74;56.03;99323.84;5006249;28;20029;-86
2022/04/18 06:25:41;;;;;;;17.50;12.00;;;;;;;8.88;54.94;99338.63;5020853;28;20029;-86
2022/04/18 06:28:07;;;;;;;18.45;13.20;;;;;;;8.76;55.56;99311.94;4991459;28;20110;-86
2022/04/18 06:30:32;;;;;;;17.90;12.75;;;;;;;8.84;55.24;99332.94;5011664;28;20042;-86
2022/04/18 06:32:57;;;;;;;15.32;11.25;;;;;;;9.00;55.45;99342.94;5019484;28;20042;-86
2022/04/18 06:35:22;;;;;;;18.70;12.40;;;;;;;9.04;54.92;99343.31;5021592;28;20374;-86
2022/04/18 06:37:48;;;;;;;16.40;12.50;;;;;;;9.05;55.29;99331.63;5015978;28;20149;-86
2022/04/18 06:40:13;;;;;;;18.25;12.18;;;;;;;9.06;55.05;99343.91;5009821;28;20045;-86
2022/04/18 06:42:38;;;;;;;21.17;12.27;;;;;;;9.20;55.16;99334.66;4989961;28;20034;-86
2022/04/18 06:45:04;;;;;;;15.93;11.93;;;;;;;9.13;55.32;99330.50;5019384;28;20464;-86
2022/04/18 06:47:29;;;;;;;17.67;12.80;;;;;;;9.19;55.12;99341.06;5005590;28;20037;-86
2022/04/18 06:49:55;;;;;;;18.27;12.23;;;;;;;9.14;55.35;99340.09;5015104;28;20026;-86
2022/04/18 06:52:22;;;;;;;16.83;11.98;;;;;;;9.05;55.44;99334.28;5021549;28;20034;-86
2022/04/18 06:54:48;;;;;;;19.08;12.23;;;;;;;9.17;55.17;99329.00;5020366;28;20084;-86
2022/04/18 06:57:15;;;;;;;17.48;11.52;;;;;;;9.17;55.75;99329.81;5023531;28;20366;-86
2022/04/18 06:59:40;;;;;;;17.52;12.70;;;;;;;9.28;55.33;99322.91;5014959;28;20482;-87
2022/04/18 07:02:05;;;;;;;18.60;12.75;;;;;;;9.12;56.34;99335.00;5005509;28;20040;-86
2022/04/18 07:04:31;;;;;;;21.92;11.63;;;;;;;9.12;55.81;99323.53;5019004;28;20038;-86
2022/04/18 07:06:56;;;;;;;14.98;10.95;;;;;;;9.38;55.47;99339.94;5010855;28;20673;-86
2022/04/18 07:09:21;;;;;;;17.70;12.20;;;;;;;9.35;55.93;99332.38;5023150;28;20136;-86
2022/04/18 07:11:47;;;;;;;17.63;11.63;;;;;;;9.20;56.53;99329.34;5023466;28;20401;-86
2022/04/18 07:14:13;;;;;;;14.95;11.77;;;;;;;9.16;56.50;99324.69;5022264;28;20041;-86
2022/04/18 07:16:40;;;;;;;20.08;12.52;;;;;;;9.25;56.01;99326.00;5002086;28;20029;-86
2022/04/18 07:19:05;;;;;;;14.98;11.65;;;;;;;9.25;56.48;99331.31;5012212;28;20040;-86
2022/04/18 07:21:31;;;;;;;18.67;11.48;;;;;;;9.27;56.77;99331.91;4991525;28;20045;-86
2022/04/18 07:23:56;;;;;;;15.98;12.50;;;;;;;9.16;56.86;99332.69;5028324;28;20168;-86
2022/04/18 07:26:21;;;;;;;18.65;11.52;;;;;;;9.33;56.68;99337.13;5025365;28;20063;-86
2022/04/18 07:28:47;;;;;;;18.67;11.63;;;;;;;9.43;56.88;99341.91;5026378;28;20041;-83
2022/04/18 07:31:14;;;;;;;16.48;11.40;;;;;;;9.34;57.33;99332.63;5005380;28;20041;-82
2022/04/18 07:33:39;;;;;;;16.73;11.38;;;;;;;9.38;57.15;99331.13;5004752;28;20164;-82
2022/04/18 07:36:05;;;;;;;16.80;11.27;;;;;;;9.56;56.57;99342.53;5022692;28;20112;-82
2022/04/18 07:38:49;;;;;;;17.83;12.40;;;;;;;9.61;56.43;99331.19;5012840;28;20509;-82
2022/04/18 07:41:19;;;;;;;14.60;10.95;;;;;;;9.68;57.03;99335.34;5026243;28;20025;-82
2022/04/18 07:43:45;;;;;;;14.70;9.98;;;;;;;9.88;56.33;99342.19;5018961;28;20111;-82
2022/04/18 07:46:11;;;;;;;13.75;10.35;;;;;;;10.03;56.05;99347.88;5005938;28;20116;-82
2022/04/18 07:48:36;;;;;;;16.95;10.98;;;;;;;10.09;56.11;99337.06;5004534;28;20036;-83
2022/04/18 07:53:46;;;;;;;14.63;10.45;;;;;;;10.20;54.99;99322.16;5018082;28;20417;-82
2022/04/18 07:56:12;;;;;;;15.05;10.40;;;;;;;10.31;55.64;99337.34;5026411;28;20025;-82
2022/04/18 07:58:37;;;;;;;14.40;10.15;;;;;;;10.32;55.98;99337.09;5019402;28;20041;-83
2022/04/18 08:01:03;;;;;;;15.05;11.18;;;;;;;10.33;55.96;99333.38;5022526;28;20393;-83
2022/04/18 08:03:32;;;;;;;11.68;9.52;;;;;;;10.41;56.02;99332.22;5024061;28;20033;-82
2022/04/18 08:05:57;;;;;;;12.38;8.88;;;;;;;10.46;55.42;99325.09;5023426;28;20072;-83
2022/04/18 08:08:23;;;;;;;15.57;10.10;;;;;;;10.55;55.63;99329.03;5008263;28;20478;-83
2022/04/18 08:10:48;;;;;;;14.05;9.38;;;;;;;10.61;55.68;99321.13;5023781;28;20034;-83
2022/04/18 08:13:14;;;;;;;12.45;9.13;;;;;;;10.66;55.67;99318.56;5022327;28;20073;-82
2022/04/18 08:15:39;;;;;;;13.75;9.55;;;;;;;10.61;56.03;99315.78;5000542;28;20026;-82
2022/04/18 08:18:05;;;;;;;11.48;8.32;;;;;;;10.66;55.71;99316.69;5034205;28;20033;-82
2022/04/18 08:20:30;;;;;;;12.88;9.27;;;;;;;10.75;55.73;99320.63;4995511;28;20033;-82
2022/04/18 08:22:55;;;;;;;11.82;8.48;;;;;;;10.86;55.95;99313.59;5023052;28;20037;-83
2022/04/18 08:25:21;;;;;;;12.38;9.18;;;;;;;10.92;55.13;99318.00;5011296;28;20025;-82
2022/04/18 08:27:46;;;;;;;12.18;8.60;;;;;;;10.99;55.73;99308.78;5020755;28;20029;-82
2022/04/18 08:30:11;;;;;;;12.32;8.57;;;;;;;10.98;56.20;99311.72;4995306;28;20029;-82
2022/04/18 08:32:41;;;;;;;11.05;7.97;;;;;;;11.11;55.88;99317.56;4993957;28;20033;-82
2022/04/18 08:35:08;;;;;;;10.73;8.15;;;;;;;11.09;56.49;99305.50;5026805;28;20071;-82
2022/04/18 08:37:34;;;;;;;9.02;7.88;;;;;;;11.19;55.88;99313.69;5026358;28;20074;-82
2022/04/18 08:40:00;;;;;;;11.68;7.85;;;;;;;11.27;55.32;99314.09;5005054;28;20041;-82
2022/04/18 08:42:32;;;;;;;12.13;7.30;;;;;;;11.28;55.58;99302.38;5018984;28;20033;-83
2022/04/18 08:44:58;;;;;;;7.78;6.50;;;;;;;11.39;55.03;99319.38;5016781;28;20045;-83
2022/04/18 08:52:53;;;;;;;7.28;5.20;;;;;;;11.73;54.76;99321.03;5024188;28;20068;-82
2022/04/18 08:55:19;;;;;;;9.60;6.00;;;;;;;11.63;54.71;99309.34;5024607;28;20396;-82
2022/04/18 08:57:44;;;;;;;6.85;5.15;;;;;;;11.79;54.68;99308.56;5010355;28;20030;-83
2022/04/18 09:00:12;;;;;;;8.13;5.50;;;;;;;11.77;54.59;99306.09;5013523;28;20026;-82
2022/04/18 09:02:38;;;;;;;9.15;5.25;;;;;;;11.83;54.41;99299.81;5030588;28;20083;-83
2022/04/18 09:05:08;;;;;;;7.07;4.63;;;;;;;11.91;53.97;99294.03;5029337;28;20468;-82
2022/04/18 09:07:33;;;;;;;4.70;4.15;;;;;;;11.98;53.56;99292.00;5027401;28;20540;-82
2022/04/18 09:09:59;;;;;;;6.25;4.45;;;;;;;12.07;53.91;99296.91;5029024;28;20034;-82
2022/04/18 09:12:28;;;;;;;5.68;4.32;;;;;;;12.09;53.42;99286.78;5030290;28;20037;-82
2022/04/18 09:14:54;;;;;;;6.43;5.13;;;;;;;12.11;53.75;99290.81;5029661;28;20044;-82
2022/04/18 09:17:33;;;;;;;5.63;4.28;;;;;;;12.26;54.00;99282.19;5026298;28;20049;-82
2022/04/18 09:20:10;;;;;;;5.28;4.55;;;;;;;12.30;53.73;99275.25;5030542;28;20037;-82
2022/04/18 09:22:42;;;;;;;5.53;4.43;;;;;;;12.40;53.54;99272.72;5009666;28;20319;-82
2022/04/18 09:25:19;;;;;;;5.85;4.20;;;;;;;12.46;53.27;99271.72;5031668;28;20025;-82
2022/04/18 09:27:56;;;;;;;4.85;4.18;;;;;;;12.55;52.93;99268.38;5027838;28;20095;-82
2022/04/18 09:30:22;;;;;;;4.65;4.00;;;;;;;12.57;53.07;99260.06;5011812;28;20049;-82
2022/04/18 09:33:01;;;;;;;7.80;4.53;;;;;;;12.67;53.10;99265.53;5014581;28;20025;-82
2022/04/18 09:35:27;;;;;;;5.53;3.85;;;;;;;12.73;52.50;99259.97;5025972;28;20029;-82
2022/04/18 09:37:58;;;;;;;6.35;4.25;;;;;;;12.84;52.33;99260.09;5021351;28;20883;-83
2022/04/18 09:40:24;;;;;;;9.35;3.95;;;;;;;12.93;51.95;99255.91;5028344;28;20389;-83
2022/04/18 09:42:53;;;;;;;4.05;3.63;;;;;;;12.93;52.21;99245.97;5038059;28;20041;-83
2022/04/18 09:45:19;;;;;;;4.70;3.83;;;;;;;13.03;50.93;99237.22;5026758;28;20066;-82
2022/04/18 09:47:53;;;;;;;4.47;3.85;;;;;;;13.23;50.68;99234.75;5013619;28;20025;-83
2022/04/18 09:53:05;;;;;;;4.38;3.75;;;;;;;13.22;50.50;99212.50;5019256;28;20589;-83
2022/04/18 09:55:30;;;;;;;4.05;2.92;;;;;;;13.38;49.91;99230.34;5017071;28;20378;-83
2022/04/18 09:58:03;;;;;;;5.25;3.05;;;;;;;13.46;50.65;99210.25;5009029;28;20055;-83
2022/04/18 10:00:28;;;;;;;5.60;2.80;;;;;;;13.61;49.84;99225.66;5023589;28;20021;-83
2022/04/18 10:02:53;;;;;;;3.85;3.10;;;;;;;13.64;49.68;99219.75;5028022;28;20056;-83
2022/04/18 10:05:19;;;;;;;9.63;3.40;;;;;;;13.75;48.77;99211.53;5027191;28;20083;-83
2022/04/18 10:07:47;;;;;;;3.63;3.03;;;;;;;13.81;48.87;99201.63;5021313;28;20042;-83
2022/04/18 10:10:13;;;;;;;5.07;2.95;;;;;;;13.98;48.73;99212.97;5020457;28;20056;-83
2022/04/18 10:12:38;;;;;;;4.00;2.80;;;;;;;13.96;49.19;99199.00;5008410;28;20603;-85
2022/04/18 10:15:04;;;;;;;4.47;3.35;;;;;;;14.14;48.34;99194.00;5020646;28;20935;-84
2022/04/18 10:17:32;;;;;;;3.17;2.85;;;;;;;14.24;49.06;99198.59;5007995;28;20037;-84
2022/04/18 10:20:35;;;;;;;4.68;2.78;;;;;;;14.40;48.05;99199.47;5017815;28;20036;-84
2022/04/18 10:23:14;;;;;;;5.28;3.15;;;;;;;14.40;47.40;99196.78;5025725;28;20044;-84
2022/04/18 10:26:02;;;;;;;6.57;3.60;;;;;;;14.43;47.53;99197.09;5031582;28;20029;-84
2022/04/18 10:28:42;;;;;;;5.43;3.25;;;;;;;14.49;46.94;99187.16;5021283;28;20033;-84
2022/04/18 10:31:13;;;;;;;3.97;3.60;;;;;;;14.62;46.72;99178.56;5022916;28;20029;-83
2022/04/18 10:33:40;;;;;;;4.60;3.25;;;;;;;14.81;46.74;99191.22;5023574;28;20389;-84
2022/04/18 10:36:07;;;;;;;4.78;3.03;;;;;;;14.77;46.31;99183.97;5017937;28;20034;-84
2022/04/18 10:38:36;;;;;;;4.15;3.50;;;;;;;14.80;46.05;99175.38;5011450;28;20037;-84
2022/04/18 10:41:15;;;;;;;4.32;3.55;;;;;;;14.90;45.13;99176.19;5022189;28;20547;-84
2022/04/18 10:43:58;;;;;;;5.25;3.50;;;;;;;14.96;44.78;99175.13;5001938;28;20528;-84
2022/04/18 10:46:23;;;;;;;6.38;4.18;;;;;;;14.98;45.24;99170.28;5010818;28;20033;-84
2022/04/18 10:48:59;;;;;;;3.42;3.08;;;;;;;15.00;44.78;99161.97;5020432;28;20489;-84
2022/04/18 10:51:36;;;;;;;5.68;3.08;;;;;;;15.16;44.70;99160.84;5007894;28;20563;-84
2022/04/18 10:54:13;;;;;;;5.45;3.53;;;;;;;15.26;44.40;99152.78;5021820;28;20113;-84
2022/04/18 10:57:01;;;;;;;6.50;3.50;;;;;;;15.27;44.49;99146.31;5025443;28;20098;-84
2022/04/18 10:59:50;;;;;;;4.93;3.75;;;;;;;15.34;44.66;99146.03;5008818;28;20043;-84
2022/04/18 11:02:42;;;;;;;4.82;3.30;;;;;;;15.49;44.83;99151.41;5024187;28;20365;-84
2022/04/18 11:05:08;;;;;;;5.72;3.65;;;;;;;15.43;44.99;99153.34;5026682;28;20507;-84
2022/04/18 11:07:42;;;;;;;4.75;3.05;;;;;;;15.71;44.53;99144.66;5027080;28;20033;-84
2022/04/18 11:10:18;;;;;;;3.28;2.95;;;;;;;15.67;44.27;99137.41;5021086;28;20029;-84
2022/04/18 11:12:44;;;;;;;4.97;3.47;;;;;;;15.76;44.42;99141.13;5028953;28;20029;-84
2022/04/18 11:15:09;;;;;;;5.10;3.55;;;;;;;15.90;44.33;99128.69;5027886;28;20371;-84
2022/04/18 11:17:39;;;;;;;7.43;4.05;;;;;;;15.93;44.25;99136.22;5012257;28;20353;-84
2022/04/18 11:20:24;;;;;;;5.97;3.30;;;;;;;16.00;44.18;99117.88;5028480;28;20429;-84
2022/04/18 11:23:14;;;;;;;6.97;4.07;;;;;;;16.22;43.95;99129.09;5027495;28;20034;-84
2022/04/18 11:26:03;;;;;;;4.20;3.80;;;;;;;16.44;43.43;99126.78;5023797;28;20021;-84
2022/04/18 11:28:34;;;;;;;5.30;4.18;;;;;;;16.37;43.49;99120.91;5018610;28;20029;-84
2022/04/18 11:31:00;;;;;;;6.43;4.07;;;;;;;16.42;43.43;99120.84;5021545;28;20030;-84
2022/04/18 11:33:25;;;;;;;6.65;4.28;;;;;;;16.49;42.96;99113.28;5028325;28;20488;-84
2022/04/18 11:35:51;;;;;;;5.25;3.60;;;;;;;16.71;43.54;99115.56;4989701;28;20040;-84
2022/04/18 11:38:16;;;;;;;4.82;3.40;;;;;;;16.84;42.81;99114.13;5006149;28;20037;-84
2022/04/18 11:40:44;;;;;;;6.28;3.80;;;;;;;16.96;43.19;99117.25;5029666;28;20096;-84
2022/04/18 11:43:17;;;;;;;5.72;3.75;;;;;;;17.12;43.08;99110.66;5022850;28;20371;-84
2022/04/18 11:45:43;;;;;;;4.43;3.58;;;;;;;17.12;42.52;99102.56;5027675;28;20029;-84
2022/04/18 11:48:11;;;;;;;6.25;4.53;;;;;;;17.31;42.64;99108.03;4996895;28;20041;-84
2022/04/18 11:50:41;;;;;;;5.22;3.67;;;;;;;17.33;42.32;99106.66;5021158;28;20067;-84